Main page
METAR-TAF:

METAR-TAF

Airports :

RAF Ascension Island

Georgetown, Ascension Island

latitude: 07-58S, longitude: 014-24W, elevation: 86 m

Current weather observation

The report was made 9 hours and 1 minutes ago, at 15:50 UTC
Wind 16 kt from the Southeast
Temperature 29°C
Humidity 62%
Pressure 1012 hPa
Visibility 10 km or more
Few clouds at a height of 2500 ft
Scattered clouds at a height of 5000 ft

METAR: FHAW 151550Z 14016KT 9999 FEW025 SCT050 29/21 Q1012 BLU NOSIG

Time: 00:51 (00:51 UTC)

Forecast

The report was made 11 hours and 31 minutes ago, at 13:20 UTC
Forecast valid from 15 at 15 UTC to 16 at 09 UTC
Wind 17 kt from the Southeast
Visibility 10 km or more
Few clouds at a height of 2300 ft
Scattered clouds at a height of 4800 ft
Probability 40% :
Temporary
from 15 at 22 UTC to 16 at 07 UTC
Visibility: 5000 m
Scattered clouds at a height of 1400 ft
Broken clouds at a height of 2000 ft
rain showers

TAF: FHAW 151320Z 1515/1609 14017KT 9999 FEW023 SCT048 PROB40 TEMPO 1522/1607 5000 SHRA SCT014 BKN020

Weather observations and forecasts of more than 4000 airports (METAR and TAF reports).

The available stations are represented by yellow and red dots on the map.

Hover mouse over dot to see the name of the station.

Then click to see weather observations and forecasts.

To change the map : click on the green buttons with a black cross to zoom in, on the green button with a dash to zoom out, or on the green arrows for adjacent maps.


METAR-TAF: